createdAt,value
2019-03-19T00:00:17.235Z,18.10
2019-03-19T00:02:45.651Z,18.00
2019-03-19T00:05:14.305Z,18.30
2019-03-19T00:07:42.855Z,18.40
2019-03-19T00:10:11.532Z,18.50
2019-03-19T00:12:40.104Z,19.50
2019-03-19T00:15:10.369Z,19.00
2019-03-19T00:17:38.926Z,17.80
2019-03-19T00:20:15.098Z,17.50
2019-03-19T00:22:43.646Z,17.10
2019-03-19T00:25:12.192Z,17.70
2019-03-19T00:27:40.788Z,18.10
2019-03-19T00:30:17.622Z,17.50
2019-03-19T00:32:46.134Z,17.90
2019-03-19T00:35:14.634Z,18.00
2019-03-19T00:37:43.117Z,17.90
2019-03-19T00:40:13.016Z,18.40
2019-03-19T00:42:41.506Z,18.10
2019-03-19T00:45:13.835Z,17.90
2019-03-19T00:47:42.418Z,18.20
2019-03-19T00:50:14.656Z,17.90
2019-03-19T00:52:43.202Z,17.30
2019-03-19T00:55:11.914Z,16.90
2019-03-19T00:57:40.335Z,16.50
2019-03-19T01:00:17.328Z,16.20
2019-03-19T01:02:45.849Z,15.90
2019-03-19T01:05:14.403Z,16.40
2019-03-19T01:07:42.926Z,16.70
2019-03-19T01:10:17.864Z,17.00
2019-03-19T01:12:46.410Z,17.00
2019-03-19T01:15:15.170Z,17.10
2019-03-19T01:17:43.692Z,17.80
2019-03-19T01:20:17.942Z,18.60
2019-03-19T01:22:46.456Z,18.80
2019-03-19T01:25:14.945Z,18.60
2019-03-19T01:27:43.358Z,18.90
2019-03-19T01:30:14.110Z,19.60
2019-03-19T01:32:42.696Z,19.70
2019-03-19T01:35:11.194Z,20.40
2019-03-19T01:37:39.760Z,20.50
2019-03-19T01:40:10.368Z,20.50
2019-03-19T01:42:39.289Z,21.00
2019-03-19T01:45:09.591Z,21.00
2019-03-19T01:47:38.993Z,21.60
2019-03-19T01:50:09.662Z,22.20
2019-03-19T01:52:38.115Z,21.90
2019-03-19T01:55:09.587Z,21.90
2019-03-19T01:57:37.993Z,22.20
2019-03-19T02:00:12.491Z,22.40
2019-03-19T02:02:40.973Z,22.00
2019-03-19T02:05:09.662Z,21.90
2019-03-19T02:07:38.192Z,21.40
2019-03-19T02:10:11.662Z,21.30
2019-03-19T02:12:40.084Z,21.90
2019-03-19T02:15:11.804Z,22.10
2019-03-19T02:17:40.296Z,22.60
2019-03-19T02:20:11.347Z,22.20
2019-03-19T02:22:39.874Z,22.50
2019-03-19T02:25:10.104Z,22.40
2019-03-19T02:27:38.518Z,22.10
2019-03-19T02:30:10.177Z,22.50
2019-03-19T02:32:38.674Z,22.10
2019-03-19T02:35:08.422Z,21.80
2019-03-19T02:37:36.880Z,22.20
2019-03-19T02:40:13.536Z,22.00
2019-03-19T02:42:42.144Z,22.00
2019-03-19T02:45:11.832Z,21.30
2019-03-19T02:47:40.431Z,21.60
2019-03-19T02:50:12.282Z,22.00
2019-03-19T02:52:40.704Z,22.00
2019-03-19T02:55:10.349Z,22.60
2019-03-19T02:57:38.895Z,23.00
2019-03-19T03:00:19.667Z,22.20
2019-03-19T03:02:48.178Z,22.30
2019-03-19T03:05:20.790Z,22.60
2019-03-19T03:07:49.294Z,23.00
2019-03-19T03:10:17.817Z,22.60
2019-03-19T03:12:46.466Z,22.10
2019-03-19T03:15:15.134Z,22.40
2019-03-19T03:17:43.591Z,22.80
2019-03-19T03:20:16.170Z,22.50
2019-03-19T03:22:44.672Z,22.90
2019-03-19T03:25:14.264Z,23.20
2019-03-19T03:27:42.842Z,23.10
2019-03-19T03:30:22.095Z,22.90
2019-03-19T03:32:50.601Z,22.70
2019-03-19T03:35:19.080Z,22.90
2019-03-19T03:37:47.603Z,23.10
2019-03-19T03:40:17.210Z,23.40
2019-03-19T03:42:45.857Z,23.10
2019-03-19T03:45:15.512Z,23.20
2019-03-19T03:47:44.014Z,23.30
2019-03-19T03:50:16.183Z,23.30
2019-03-19T03:52:44.779Z,22.80
2019-03-19T03:55:20.679Z,23.00
2019-03-19T03:57:49.119Z,22.60
2019-03-19T04:00:18.492Z,23.00
2019-03-19T04:02:47.144Z,23.20
2019-03-19T04:05:15.659Z,23.30
2019-03-19T04:07:44.124Z,23.70
2019-03-19T04:10:16.555Z,23.60
2019-03-19T04:12:45.071Z,23.10
2019-03-19T04:15:14.591Z,23.60
2019-03-19T04:17:43.072Z,23.20
2019-03-19T04:20:12.589Z,22.70
2019-03-19T04:22:41.127Z,23.30
2019-03-19T04:25:10.583Z,23.20
2019-03-19T04:27:40.711Z,23.30
2019-03-19T04:30:17.698Z,23.00
2019-03-19T04:32:46.231Z,22.90
2019-03-19T04:35:14.643Z,23.30
2019-03-19T04:37:43.133Z,22.60
2019-03-19T04:40:13.007Z,21.40
2019-03-19T04:42:41.539Z,21.20
2019-03-19T04:45:11.392Z,21.00
2019-03-19T04:47:39.977Z,21.60
2019-03-19T04:50:13.083Z,21.10
2019-03-19T04:52:41.556Z,20.70
2019-03-19T04:55:11.442Z,20.10
2019-03-19T04:57:39.855Z,19.90
2019-03-19T05:00:13.406Z,19.70
2019-03-19T05:02:41.928Z,19.60
2019-03-19T05:05:11.392Z,19.10
2019-03-19T05:07:39.865Z,20.20
2019-03-19T05:10:16.402Z,21.30
2019-03-19T05:12:44.822Z,21.90
2019-03-19T05:15:13.524Z,21.30
2019-03-19T05:17:42.056Z,21.10
2019-03-19T05:20:14.573Z,20.60
2019-03-19T05:22:43.042Z,21.30
2019-03-19T05:25:11.846Z,21.60
2019-03-19T05:27:40.328Z,21.00
2019-03-19T05:30:11.914Z,22.00
2019-03-19T05:32:40.450Z,22.00
2019-03-19T05:35:09.729Z,22.90
2019-03-19T05:37:38.285Z,23.60
2019-03-19T05:40:09.552Z,23.30
2019-03-19T05:42:38.169Z,22.80
2019-03-19T05:45:11.460Z,22.90
2019-03-19T05:47:40.686Z,22.90
2019-03-19T05:50:12.026Z,21.90
2019-03-19T05:52:40.513Z,22.80
2019-03-19T05:55:09.608Z,22.90
2019-03-19T05:57:48.700Z,22.90
2019-03-19T06:00:14.680Z,23.30
2019-03-19T06:02:43.096Z,23.60
2019-03-19T06:05:12.635Z,23.10
2019-03-19T06:07:41.086Z,22.50
2019-03-19T06:10:12.099Z,21.80
2019-03-19T06:12:40.594Z,22.30
2019-03-19T06:15:11.188Z,22.50
2019-03-19T06:17:39.754Z,22.80
2019-03-19T06:20:11.566Z,23.60
2019-03-19T06:22:40.028Z,23.30
2019-03-19T06:25:10.286Z,23.90
2019-03-19T06:27:38.779Z,23.70
2019-03-19T06:30:23.906Z,23.90
2019-03-19T06:32:52.458Z,23.50
2019-03-19T06:35:20.950Z,23.30
2019-03-19T06:37:49.541Z,23.70
2019-03-19T06:40:20.155Z,23.70
2019-03-19T06:42:48.656Z,23.50
2019-03-19T06:45:18.053Z,23.30
2019-03-19T06:47:46.551Z,23.10
2019-03-19T06:50:15.973Z,23.40
2019-03-19T06:52:44.501Z,23.50
2019-03-19T06:55:13.952Z,23.30
2019-03-19T06:57:43.345Z,23.70
2019-03-19T07:00:19.542Z,23.10
2019-03-19T07:02:48.100Z,23.50
2019-03-19T07:05:17.614Z,23.80
2019-03-19T07:07:46.138Z,23.90
2019-03-19T07:10:18.175Z,24.00
2019-03-19T07:12:46.902Z,24.40
2019-03-19T07:15:22.121Z,24.40
2019-03-19T07:17:50.599Z,24.20
2019-03-19T07:20:27.273Z,24.30
2019-03-19T07:22:55.751Z,23.00
2019-03-19T07:25:24.811Z,23.10
2019-03-19T07:27:53.274Z,23.40
2019-03-19T07:30:23.897Z,23.20
2019-03-19T07:32:52.388Z,23.30
2019-03-19T07:35:20.913Z,23.40
2019-03-19T07:37:49.406Z,23.30
2019-03-19T07:40:18.073Z,23.20
2019-03-19T07:42:46.681Z,23.10
2019-03-19T07:45:25.163Z,23.40
2019-03-19T07:47:53.617Z,23.40
2019-03-19T07:50:22.973Z,23.60
2019-03-19T07:52:51.540Z,23.30
2019-03-19T07:55:20.077Z,23.00
2019-03-19T07:57:48.563Z,23.10
2019-03-19T08:00:21.609Z,21.70
2019-03-19T08:02:50.127Z,21.50
2019-03-19T08:05:18.677Z,21.20
2019-03-19T08:07:47.282Z,21.60
2019-03-19T08:10:16.845Z,22.20
2019-03-19T08:12:45.394Z,22.20
2019-03-19T08:15:17.715Z,21.70
2019-03-19T08:17:46.241Z,22.10
2019-03-19T08:20:16.752Z,21.50
2019-03-19T08:22:45.335Z,22.50
2019-03-19T08:25:17.062Z,22.10
2019-03-19T08:27:45.629Z,21.50
2019-03-19T08:30:18.802Z,21.40
2019-03-19T08:32:47.325Z,22.20
2019-03-19T08:35:15.830Z,22.60
2019-03-19T08:37:44.477Z,23.00
2019-03-19T08:40:19.835Z,23.00
2019-03-19T08:42:48.489Z,22.80
2019-03-19T08:45:18.604Z,23.10
2019-03-19T08:47:47.189Z,23.40
2019-03-19T08:50:20.036Z,22.00
2019-03-19T08:52:48.705Z,21.80
2019-03-19T08:55:17.185Z,22.20
2019-03-19T08:57:45.765Z,23.10
2019-03-19T09:00:17.005Z,22.70
2019-03-19T09:02:45.679Z,22.90
2019-03-19T09:05:14.287Z,22.90
2019-03-19T09:07:42.813Z,23.50
2019-03-19T09:10:12.761Z,23.90
2019-03-19T09:12:41.326Z,23.70
2019-03-19T09:15:12.376Z,23.60
2019-03-19T09:17:40.911Z,24.50
2019-03-19T09:20:14.594Z,24.50
2019-03-19T09:27:40.034Z,22.10
2019-03-19T09:30:16.692Z,22.20
2019-03-19T09:32:45.253Z,23.00
2019-03-19T09:37:44.954Z,23.30
2019-03-19T09:42:45.120Z,21.60
2019-03-19T09:45:14.839Z,20.30
2019-03-19T09:47:43.548Z,20.20
2019-03-19T09:50:14.330Z,20.20
2019-03-19T09:55:13.238Z,20.10
2019-03-19T09:57:41.775Z,20.40
2019-03-19T10:00:18.401Z,20.40
2019-03-19T10:07:43.438Z,21.20
2019-03-19T10:10:16.639Z,21.50
2019-03-19T10:15:14.044Z,22.10
2019-03-19T10:20:21.734Z,22.60
2019-03-19T10:22:50.313Z,21.70
2019-03-19T10:25:18.832Z,22.00
2019-03-19T10:30:35.554Z,22.90
2019-03-19T10:33:04.129Z,23.00
2019-03-19T10:35:32.680Z,22.80
2019-03-19T10:45:26.409Z,23.10
2019-03-19T10:52:55.255Z,21.90
2019-03-19T10:57:52.091Z,21.10
2019-03-19T11:00:24.420Z,20.00
2019-03-19T11:02:53.060Z,19.40
2019-03-19T11:07:53.596Z,18.80
2019-03-19T11:10:22.349Z,18.60
2019-03-19T11:12:50.854Z,18.00
2019-03-19T11:20:18.388Z,19.30
2019-03-19T11:22:46.919Z,20.20
2019-03-19T11:27:47.447Z,21.10
2019-03-19T11:32:45.154Z,21.80
2019-03-19T11:35:13.759Z,22.10
2019-03-19T11:42:39.958Z,22.90
2019-03-19T11:47:38.268Z,22.20
2019-03-19T11:50:15.952Z,21.90
2019-03-19T11:52:44.531Z,21.30
2019-03-19T11:57:42.174Z,21.60
2019-03-19T12:00:21.122Z,21.70
2019-03-19T12:02:49.804Z,22.80
2019-03-19T12:07:47.573Z,20.80
2019-03-19T12:10:16.261Z,21.20
2019-03-19T12:12:44.671Z,22.70
2019-03-19T12:15:13.167Z,23.60
2019-03-19T12:17:41.767Z,21.40
2019-03-19T12:20:12.866Z,22.00
2019-03-19T12:22:41.285Z,22.80
2019-03-19T12:27:38.942Z,23.60
2019-03-19T12:30:22.042Z,22.80
2019-03-19T12:32:46.639Z,24.30
2019-03-19T12:37:43.958Z,24.20
2019-03-19T12:42:41.978Z,23.60
2019-03-19T12:45:13.624Z,23.80
2019-03-19T12:47:42.253Z,25.00
2019-03-19T12:50:18.727Z,24.60
2019-03-19T12:52:47.343Z,25.40
2019-03-19T13:00:18.092Z,24.10
2019-03-19T13:07:43.321Z,22.80
2019-03-19T13:10:20.077Z,22.10
2019-03-19T13:12:48.573Z,21.20
2019-03-19T13:20:16.441Z,21.60
2019-03-19T13:25:17.911Z,22.90
2019-03-19T13:30:22.264Z,23.80
2019-03-19T13:37:47.606Z,25.10
2019-03-19T13:40:17.940Z,25.10
2019-03-19T13:42:46.436Z,24.40
2019-03-19T13:50:19.535Z,25.30
2019-03-19T13:52:48.189Z,24.50
2019-03-19T13:57:51.849Z,24.00
2019-03-19T14:00:20.405Z,24.80
2019-03-19T14:02:48.903Z,25.30
2019-03-19T14:05:17.980Z,25.10
2019-03-19T14:07:46.630Z,25.00
2019-03-19T14:10:18.788Z,25.30
2019-03-19T14:17:51.569Z,25.20
2019-03-19T14:20:20.136Z,25.20
2019-03-19T14:30:26.394Z,24.10
2019-03-19T14:32:54.964Z,24.50
2019-03-19T14:37:51.847Z,23.70
2019-03-19T14:40:24.036Z,22.70
2019-03-19T14:42:52.587Z,23.00
2019-03-19T14:47:49.624Z,24.80
2019-03-19T14:57:43.993Z,25.20
2019-03-19T15:00:19.735Z,24.50
2019-03-19T15:10:20.866Z,22.50
2019-03-19T15:12:50.339Z,22.80
2019-03-19T15:17:47.864Z,24.20
2019-03-19T15:22:47.864Z,23.30
2019-03-19T15:27:44.725Z,24.00
2019-03-19T15:30:15.706Z,23.80
2019-03-19T15:32:44.254Z,24.00
2019-03-19T15:35:12.851Z,24.30
2019-03-19T15:37:42.532Z,23.80
2019-03-19T15:42:42.678Z,24.10
2019-03-19T15:45:22.049Z,24.50
2019-03-19T15:47:50.664Z,25.00
2019-03-19T15:50:19.226Z,25.30
2019-03-19T15:55:16.422Z,24.40
2019-03-19T15:57:45.067Z,24.00
2019-03-19T16:00:15.687Z,23.90
2019-03-19T16:02:44.353Z,23.90
2019-03-19T16:05:13.651Z,23.20
2019-03-19T16:07:42.231Z,22.60
2019-03-19T16:10:14.532Z,22.30
2019-03-19T16:12:43.131Z,22.40
2019-03-19T16:15:22.280Z,22.70
2019-03-19T16:17:50.842Z,22.80
2019-03-19T16:20:23.016Z,24.00
2019-03-19T16:22:51.885Z,24.00
2019-03-19T16:25:20.513Z,23.70
2019-03-19T16:27:49.231Z,23.60
2019-03-19T16:30:21.513Z,23.40
2019-03-19T16:32:50.157Z,24.20
2019-03-19T16:35:18.736Z,24.70
2019-03-19T16:37:47.420Z,25.40
2019-03-19T16:40:19.815Z,25.90
2019-03-19T16:42:48.405Z,26.00
2019-03-19T16:45:18.371Z,26.00
2019-03-19T16:47:47.259Z,26.10
2019-03-19T16:50:19.830Z,26.70
2019-03-19T16:52:48.392Z,27.00
2019-03-19T16:55:17.983Z,27.20
2019-03-19T16:57:46.595Z,27.20
2019-03-19T17:00:25.310Z,27.20
2019-03-19T17:02:53.859Z,27.30
2019-03-19T17:05:23.552Z,27.60
2019-03-19T17:07:52.140Z,27.60
2019-03-19T17:10:29.140Z,27.80
2019-03-19T17:12:57.768Z,27.80
2019-03-19T17:15:26.333Z,27.80
2019-03-19T17:17:58.490Z,27.30
2019-03-19T17:20:27.189Z,26.80
2019-03-19T17:22:55.880Z,26.50
2019-03-19T17:25:25.322Z,26.60
2019-03-19T17:27:54.275Z,26.40
2019-03-19T17:30:32.557Z,25.60
2019-03-19T17:33:01.217Z,26.10
2019-03-19T17:35:29.797Z,26.80
2019-03-19T17:37:58.278Z,26.70
2019-03-19T17:40:26.925Z,26.00
2019-03-19T17:42:55.546Z,25.00
2019-03-19T17:45:24.113Z,25.10
2019-03-19T17:47:52.733Z,25.20
2019-03-19T17:50:23.554Z,25.60
2019-03-19T17:52:54.328Z,25.60
2019-03-19T17:55:23.167Z,25.50
2019-03-19T17:57:51.718Z,25.90
2019-03-19T18:00:37.611Z,26.20
2019-03-19T18:03:06.335Z,26.40
2019-03-19T18:05:34.936Z,26.50
2019-03-19T18:08:03.594Z,26.40
2019-03-19T18:10:32.276Z,26.30
2019-03-19T18:13:06.286Z,26.20
2019-03-19T18:15:34.224Z,26.60
2019-03-19T18:18:02.954Z,27.00
2019-03-19T18:20:31.626Z,27.30
2019-03-19T18:23:01.734Z,27.20
2019-03-19T18:25:30.315Z,27.30
2019-03-19T18:27:58.929Z,26.80
2019-03-19T18:30:27.682Z,27.10
2019-03-19T18:32:56.648Z,27.50
2019-03-19T18:35:25.397Z,27.60
2019-03-19T18:37:54.088Z,27.80
2019-03-19T18:40:22.660Z,27.80
2019-03-19T18:42:51.415Z,27.70
2019-03-19T18:45:20.733Z,27.60
2019-03-19T18:47:49.451Z,27.70
2019-03-19T18:50:24.201Z,28.00
2019-03-19T18:52:52.733Z,27.50
2019-03-19T18:55:22.971Z,27.40
2019-03-19T18:57:51.700Z,27.20
2019-03-19T19:00:24.253Z,26.80
2019-03-19T19:02:52.891Z,26.60
2019-03-19T19:05:22.801Z,26.70
2019-03-19T19:07:51.580Z,26.10
2019-03-19T19:10:21.346Z,26.30
2019-03-19T19:12:50.545Z,26.50
2019-03-19T19:15:21.333Z,26.40
2019-03-19T19:17:49.913Z,25.90
2019-03-19T19:20:18.817Z,25.90
2019-03-19T19:22:47.308Z,25.90
2019-03-19T19:25:24.859Z,26.10
2019-03-19T19:27:53.670Z,26.50
2019-03-19T19:30:23.061Z,26.60
2019-03-19T19:33:00.893Z,26.90
2019-03-19T19:35:21.990Z,25.90
2019-03-19T19:37:50.634Z,26.50
2019-03-19T19:40:19.265Z,26.50
2019-03-19T19:42:48.346Z,26.40
2019-03-19T19:45:18.893Z,26.80
2019-03-19T19:47:47.612Z,27.00
2019-03-19T19:50:18.532Z,27.20
2019-03-19T19:52:48.118Z,27.30
2019-03-19T19:55:16.746Z,27.10
2019-03-19T19:57:45.435Z,26.90
2019-03-19T20:00:20.963Z,27.10
2019-03-19T20:02:49.640Z,25.80
2019-03-19T20:05:18.292Z,25.60
2019-03-19T20:07:47.051Z,25.80
2019-03-19T20:10:26.842Z,25.80
2019-03-19T20:12:55.442Z,25.70
2019-03-19T20:15:24.324Z,25.50
2019-03-19T20:17:54.964Z,25.70
2019-03-19T20:20:25.383Z,25.90
2019-03-19T20:22:54.050Z,26.20
2019-03-19T20:25:22.695Z,26.30
2019-03-19T20:27:51.374Z,26.20
2019-03-19T20:30:21.245Z,26.10
2019-03-19T20:32:49.807Z,26.40
2019-03-19T20:35:18.548Z,26.50
2019-03-19T20:37:47.055Z,26.70
2019-03-19T20:40:16.108Z,26.90
2019-03-19T20:42:44.739Z,27.00
2019-03-19T20:45:21.813Z,27.20
2019-03-19T20:47:50.439Z,27.20
2019-03-19T20:50:34.119Z,27.10
2019-03-19T20:53:02.789Z,27.00
2019-03-19T20:55:31.443Z,26.80
2019-03-19T20:58:00.860Z,26.50
2019-03-19T21:00:29.634Z,26.30
2019-03-19T21:02:58.265Z,26.20
2019-03-19T21:05:26.841Z,26.00
2019-03-19T21:07:56.602Z,25.90
2019-03-19T21:10:25.739Z,25.80
2019-03-19T21:12:54.381Z,25.80
2019-03-19T21:15:26.674Z,25.90
2019-03-19T21:17:55.313Z,26.00
2019-03-19T21:20:23.988Z,26.20
2019-03-19T21:22:52.647Z,26.40
2019-03-19T21:25:23.852Z,26.60
2019-03-19T21:27:52.475Z,26.80
2019-03-19T21:30:24.742Z,26.90
2019-03-19T21:32:53.384Z,27.00
2019-03-19T21:35:24.253Z,27.00
2019-03-19T21:37:52.955Z,26.90
2019-03-19T21:40:22.673Z,27.00
2019-03-19T21:42:52.669Z,27.00
2019-03-19T21:45:23.003Z,27.00
2019-03-19T21:47:51.579Z,27.00
2019-03-19T21:50:23.996Z,27.00
2019-03-19T21:52:52.585Z,27.10
2019-03-19T21:55:21.082Z,27.10
2019-03-19T21:57:50.545Z,27.20
2019-03-19T22:00:24.078Z,27.30
2019-03-19T22:02:53.178Z,27.30
2019-03-19T22:05:23.813Z,27.30
2019-03-19T22:07:52.310Z,27.20
2019-03-19T22:10:21.472Z,27.00
2019-03-19T22:12:50.003Z,26.80
2019-03-19T22:15:22.731Z,26.60
2019-03-19T22:17:51.155Z,26.60
2019-03-19T22:20:19.786Z,26.50
2019-03-19T22:22:48.315Z,26.50
2019-03-19T22:25:16.814Z,26.50
2019-03-19T22:27:46.219Z,26.40
2019-03-19T22:30:16.324Z,26.30
2019-03-19T22:32:44.884Z,26.20
2019-03-19T22:35:13.447Z,26.20
2019-03-19T22:37:41.957Z,26.20
2019-03-19T22:40:14.719Z,26.20
2019-03-19T22:42:43.206Z,26.20
2019-03-19T22:45:16.502Z,26.30
2019-03-19T22:47:45.132Z,26.40
2019-03-19T22:50:17.846Z,26.20
2019-03-19T22:52:46.632Z,26.00
2019-03-19T22:55:15.603Z,25.90
2019-03-19T22:57:44.155Z,25.80
2019-03-19T23:00:39.698Z,25.70
2019-03-19T23:03:08.260Z,25.70
2019-03-19T23:05:36.837Z,25.70
2019-03-19T23:08:05.443Z,25.60
2019-03-19T23:10:34.232Z,25.60
2019-03-19T23:13:02.798Z,25.60
2019-03-19T23:15:31.442Z,25.70
2019-03-19T23:18:00.027Z,25.50
2019-03-19T23:20:28.659Z,25.30
2019-03-19T23:22:57.294Z,25.00
2019-03-19T23:25:25.799Z,24.90
2019-03-19T23:27:54.423Z,24.70
2019-03-19T23:30:25.083Z,24.60
2019-03-19T23:32:53.574Z,24.80
2019-03-19T23:35:22.071Z,24.90
2019-03-19T23:37:50.587Z,25.00
2019-03-19T23:40:21.185Z,25.10
2019-03-19T23:42:49.664Z,25.30
2019-03-19T23:45:18.532Z,25.50
2019-03-19T23:47:47.010Z,25.70
2019-03-19T23:50:16.571Z,25.60
2019-03-19T23:52:45.148Z,25.60
2019-03-19T23:55:13.595Z,25.70
2019-03-19T23:57:42.092Z,25.70
